Time;durP1;ratioP1;P1;durP2;ratioP2;P2;SDS_P1;SDS_P2;PMS_P1;PMS_P2;Temp;Humidity;BMP_temperature;BMP_pressure;BME280_temperature;BME280_humidity;BME280_pressure;Samples;Min_cycle;Max_cycle;Signal;HPM_P1;HPM_P2
2023/12/31 00:00:52;;;;;;;181.93;100.93;;;;;;;;;;5176783;27;320667;-80
2023/12/31 00:03:18;;;;;;;163.40;92.23;;;;;;;;;;5189750;27;320192;-80
2023/12/31 00:05:45;;;;;;;152.33;84.77;;;;;;;;;;5170883;27;319345;-80
2023/12/31 00:08:13;;;;;;;136.87;78.77;;;;;;;;;;5187015;27;319363;-80
2023/12/31 00:10:40;;;;;;;147.73;79.83;;;;;;;;;;5177223;27;318406;-80
2023/12/31 00:13:07;;;;;;;146.37;78.77;;;;;;;;;;5187185;27;319403;-81
2023/12/31 00:15:35;;;;;;;128.87;77.30;;;;;;;;;;5175705;27;319252;-80
2023/12/31 00:18:02;;;;;;;125.93;73.83;;;;;;;;;;5177888;27;318580;-81
2023/12/31 00:20:29;;;;;;;126.30;69.87;;;;;;;;;;5187471;27;319295;-79
2023/12/31 00:22:56;;;;;;;123.47;70.93;;;;;;;;;;5176620;27;319048;-79
2023/12/31 00:25:22;;;;;;;120.30;68.97;;;;;;;;;;5188141;27;319478;-79
2023/12/31 00:27:49;;;;;;;114.90;67.03;;;;;;;;;;5169290;27;319063;-79
2023/12/31 00:30:16;;;;;;;118.43;68.33;;;;;;;;;;5188834;27;318526;-80
2023/12/31 00:32:44;;;;;;;121.17;69.30;;;;;;;;;;5176009;27;332805;-80
2023/12/31 00:35:11;;;;;;;124.43;68.73;;;;;;;;;;5186650;27;319019;-79
2023/12/31 00:37:39;;;;;;;116.77;62.67;;;;;;;;;;5156802;27;318575;-79
2023/12/31 00:40:07;;;;;;;110.90;65.90;;;;;;;;;;5180953;27;319243;-79
2023/12/31 00:42:35;;;;;;;108.93;61.87;;;;;;;;;;5176099;27;367325;-79
2023/12/31 00:45:02;;;;;;;103.03;63.47;;;;;;;;;;5188343;27;319486;-79
2023/12/31 00:47:29;;;;;;;113.90;62.57;;;;;;;;;;5187950;27;319023;-79
2023/12/31 00:50:02;;;;;;;112.87;64.77;;;;;;;;;;5171132;27;319141;-79
2023/12/31 00:52:30;;;;;;;104.80;59.50;;;;;;;;;;5191100;27;318412;-79
2023/12/31 00:54:57;;;;;;;108.20;60.67;;;;;;;;;;5174432;27;418144;-81
2023/12/31 00:57:24;;;;;;;102.20;56.23;;;;;;;;;;5190439;27;318574;-80
2023/12/31 00:59:51;;;;;;;91.67;54.07;;;;;;;;;;5171153;27;319131;-80
2023/12/31 01:02:17;;;;;;;112.73;62.70;;;;;;;;;;5191059;27;318428;-81
2023/12/31 01:04:44;;;;;;;137.53;75.67;;;;;;;;;;5174846;27;319080;-79
2023/12/31 01:07:13;;;;;;;139.30;71.73;;;;;;;;;;5188898;27;349282;-80
2023/12/31 01:09:40;;;;;;;132.40;74.23;;;;;;;;;;5175701;27;318653;-79
2023/12/31 01:12:07;;;;;;;141.67;71.77;;;;;;;;;;5182664;27;319204;-80
2023/12/31 01:14:35;;;;;;;126.13;69.70;;;;;;;;;;5177985;27;318413;-80
2023/12/31 01:17:02;;;;;;;116.90;67.33;;;;;;;;;;5189539;27;319312;-81
2023/12/31 01:19:29;;;;;;;114.77;67.90;;;;;;;;;;5187396;27;348451;-80
2023/12/31 01:21:56;;;;;;;112.43;64.47;;;;;;;;;;5164981;27;319377;-80
2023/12/31 01:24:26;;;;;;;121.07;66.00;;;;;;;;;;5190240;27;319458;-80
2023/12/31 01:26:56;;;;;;;161.57;88.20;;;;;;;;;;5174535;27;340649;-80
2023/12/31 01:29:25;;;;;;;205.60;107.90;;;;;;;;;;5189311;27;318846;-80
2023/12/31 01:31:54;;;;;;;209.83;116.50;;;;;;;;;;5169158;27;319649;-80
2023/12/31 01:34:22;;;;;;;208.73;116.37;;;;;;;;;;5186453;27;319942;-79
2023/12/31 01:36:49;;;;;;;220.77;119.73;;;;;;;;;;5174255;27;320216;-79
2023/12/31 01:39:16;;;;;;;236.47;126.93;;;;;;;;;;5188355;27;330598;-81
2023/12/31 01:41:44;;;;;;;227.30;122.63;;;;;;;;;;5177836;27;320533;-79
2023/12/31 01:44:11;;;;;;;241.50;127.53;;;;;;;;;;5181400;27;320389;-79
2023/12/31 01:46:38;;;;;;;218.20;121.27;;;;;;;;;;5178085;27;320162;-80
2023/12/31 01:49:05;;;;;;;216.10;118.37;;;;;;;;;;5186309;27;320773;-80
2023/12/31 01:51:33;;;;;;;206.70;115.93;;;;;;;;;;5189498;27;320269;-80
2023/12/31 01:54:02;;;;;;;203.97;113.73;;;;;;;;;;5163831;27;420920;-80
2023/12/31 01:56:29;;;;;;;208.50;114.67;;;;;;;;;;5190109;27;320040;-80
2023/12/31 01:58:59;;;;;;;194.43;105.87;;;;;;;;;;5176141;27;320497;-80
2023/12/31 02:01:26;;;;;;;193.60;104.40;;;;;;;;;;5190049;27;320628;-80
2023/12/31 02:03:53;;;;;;;180.23;100.27;;;;;;;;;;5168975;27;320406;-80
2023/12/31 02:06:20;;;;;;;174.93;96.33;;;;;;;;;;5186556;27;319704;-80
2023/12/31 02:08:47;;;;;;;186.70;98.57;;;;;;;;;;5175875;27;319165;-80
2023/12/31 02:11:14;;;;;;;183.20;100.53;;;;;;;;;;5189221;27;318628;-80
2023/12/31 02:13:41;;;;;;;226.30;128.77;;;;;;;;;;5173267;27;320301;-80
2023/12/31 02:16:15;;;;;;;272.97;145.60;;;;;;;;;;5177973;27;319743;-80
2023/12/31 02:18:41;;;;;;;266.83;146.73;;;;;;;;;;5178428;27;320280;-80
2023/12/31 02:21:08;;;;;;;268.43;153.30;;;;;;;;;;5187763;27;320715;-80
2023/12/31 02:23:37;;;;;;;279.80;157.17;;;;;;;;;;5175386;27;320303;-80
2023/12/31 02:26:08;;;;;;;276.23;157.87;;;;;;;;;;5180775;27;320525;-80
2023/12/31 02:28:35;;;;;;;259.30;150.53;;;;;;;;;;5174532;27;319679;-80
2023/12/31 02:31:02;;;;;;;267.10;154.13;;;;;;;;;;5188297;27;319996;-80
2023/12/31 02:33:29;;;;;;;260.67;148.40;;;;;;;;;;5188310;27;319523;-80
2023/12/31 02:35:55;;;;;;;237.77;138.20;;;;;;;;;;5167128;27;320254;-80
2023/12/31 02:38:22;;;;;;;244.67;141.67;;;;;;;;;;5188566;27;319806;-80
2023/12/31 02:40:49;;;;;;;239.77;139.63;;;;;;;;;;5175842;27;343127;-80
2023/12/31 02:43:38;;;;;;;250.13;140.73;;;;;;;;;;5189608;27;319592;-80
2023/12/31 02:46:06;;;;;;;232.67;133.13;;;;;;;;;;5134865;27;419677;-80
2023/12/31 02:48:41;;;;;;;220.53;127.93;;;;;;;;;;5190708;27;320188;-80
2023/12/31 02:51:11;;;;;;;232.97;130.70;;;;;;;;;;5147674;27;419785;-80
2023/12/31 02:53:41;;;;;;;229.13;126.93;;;;;;;;;;5174358;27;320150;-80
2023/12/31 02:56:08;;;;;;;221.83;121.63;;;;;;;;;;5181173;27;320788;-80
2023/12/31 02:58:36;;;;;;;214.57;121.53;;;;;;;;;;5178180;27;320283;-80
2023/12/31 03:01:03;;;;;;;225.80;125.90;;;;;;;;;;5189312;27;320268;-79
2023/12/31 03:03:29;;;;;;;206.53;118.33;;;;;;;;;;5190559;27;319924;-80
2023/12/31 03:05:56;;;;;;;186.63;106.43;;;;;;;;;;5163309;27;320552;-79
2023/12/31 03:08:23;;;;;;;184.67;107.43;;;;;;;;;;5188741;27;319516;-80
2023/12/31 03:10:49;;;;;;;178.07;103.87;;;;;;;;;;5178307;27;320360;-80
2023/12/31 03:13:16;;;;;;;171.47;102.50;;;;;;;;;;5189336;27;320056;-80
2023/12/31 03:15:44;;;;;;;163.37;94.37;;;;;;;;;;5173380;27;361071;-80
2023/12/31 03:18:11;;;;;;;158.43;91.27;;;;;;;;;;5185942;27;318605;-81
2023/12/31 03:20:38;;;;;;;142.97;87.67;;;;;;;;;;5175660;27;319065;-81
2023/12/31 03:23:04;;;;;;;140.57;85.40;;;;;;;;;;5187243;27;319041;-80
2023/12/31 03:25:31;;;;;;;142.50;83.90;;;;;;;;;;5186549;27;319464;-80
2023/12/31 03:27:58;;;;;;;163.33;87.60;;;;;;;;;;5164665;27;419631;-80
2023/12/31 03:30:25;;;;;;;174.97;98.67;;;;;;;;;;5190754;27;318912;-80
2023/12/31 03:32:53;;;;;;;208.00;117.20;;;;;;;;;;5175984;27;319266;-80
2023/12/31 03:35:19;;;;;;;195.47;111.53;;;;;;;;;;5188490;27;320459;-80
2023/12/31 03:37:47;;;;;;;204.90;112.73;;;;;;;;;;5174145;27;320469;-80
2023/12/31 03:40:15;;;;;;;164.57;95.90;;;;;;;;;;5183331;27;319605;-80
2023/12/31 03:42:41;;;;;;;174.20;102.53;;;;;;;;;;5176535;27;319283;-80
2023/12/31 03:45:09;;;;;;;193.33;108.77;;;;;;;;;;5188517;27;320361;-80
2023/12/31 03:47:35;;;;;;;195.90;108.73;;;;;;;;;;5177304;27;320266;-80
2023/12/31 03:50:04;;;;;;;206.20;111.00;;;;;;;;;;5177155;27;319549;-79
2023/12/31 03:52:32;;;;;;;186.93;101.83;;;;;;;;;;5187436;27;320292;-80
2023/12/31 03:55:03;;;;;;;167.57;97.23;;;;;;;;;;5174589;27;421086;-80
2023/12/31 03:57:29;;;;;;;162.70;93.73;;;;;;;;;;5190281;27;319641;-80
2023/12/31 03:59:56;;;;;;;157.37;91.23;;;;;;;;;;5166226;27;318591;-80
2023/12/31 04:02:23;;;;;;;156.97;90.93;;;;;;;;;;5192223;27;319470;-80
2023/12/31 04:04:52;;;;;;;151.50;83.10;;;;;;;;;;5180480;27;319084;-80
2023/12/31 04:10:02;;;;;;;104.97;65.07;;;;;;;;;;5167223;27;390445;-80
2023/12/31 04:12:28;;;;;;;98.77;61.27;;;;;;;;;;5199702;27;318479;-79
2023/12/31 04:14:56;;;;;;;77.90;45.00;;;;;;;;;;5175078;27;316731;-79
2023/12/31 04:17:32;;;;;;;140.87;84.87;;;;;;;;;;5188123;27;318165;-79
2023/12/31 04:22:48;;;;;;;165.83;96.50;;;;;;;;;;5160214;27;317737;-79
2023/12/31 04:25:22;;;;;;;219.03;126.40;;;;;;;;;;5185774;27;318088;-80
2023/12/31 04:27:59;;;;;;;194.57;116.70;;;;;;;;;;5146347;27;320147;-80
2023/12/31 04:30:26;;;;;;;220.40;124.23;;;;;;;;;;5168808;27;324690;-80
2023/12/31 04:32:55;;;;;;;189.07;116.63;;;;;;;;;;5170722;27;320311;-81
2023/12/31 04:35:22;;;;;;;217.07;121.53;;;;;;;;;;5178714;27;336319;-79
2023/12/31 04:37:50;;;;;;;192.33;105.60;;;;;;;;;;5172242;27;320310;-78
2023/12/31 04:40:17;;;;;;;178.53;107.43;;;;;;;;;;5185969;27;320505;-79
2023/12/31 04:42:43;;;;;;;183.53;99.93;;;;;;;;;;5178401;27;320181;-79
2023/12/31 04:45:11;;;;;;;155.43;87.60;;;;;;;;;;5186612;27;319363;-80
2023/12/31 04:47:38;;;;;;;150.87;85.07;;;;;;;;;;5177728;27;319384;-80
2023/12/31 04:50:10;;;;;;;146.60;83.33;;;;;;;;;;5173629;27;319419;-81
2023/12/31 04:52:41;;;;;;;133.93;77.57;;;;;;;;;;5176244;27;322226;-79
2023/12/31 04:55:14;;;;;;;132.37;79.90;;;;;;;;;;5189112;27;317433;-79
2023/12/31 04:57:43;;;;;;;174.50;101.10;;;;;;;;;;5147655;27;317917;-79
2023/12/31 05:00:11;;;;;;;167.37;94.57;;;;;;;;;;5176476;27;320054;-80
2023/12/31 05:02:38;;;;;;;151.60;88.13;;;;;;;;;;5177282;27;318704;-80
2023/12/31 05:05:06;;;;;;;171.03;96.67;;;;;;;;;;5197756;27;317936;-80
2023/12/31 05:07:33;;;;;;;176.30;100.40;;;;;;;;;;5191957;27;383588;-79
2023/12/31 05:10:01;;;;;;;159.10;97.23;;;;;;;;;;5199604;27;317612;-79
2023/12/31 05:12:30;;;;;;;160.50;95.50;;;;;;;;;;5206378;27;317689;-80
2023/12/31 05:14:56;;;;;;;162.37;91.93;;;;;;;;;;5194386;27;319319;-80
2023/12/31 05:17:23;;;;;;;154.53;92.40;;;;;;;;;;5207665;27;334018;-80
2023/12/31 05:19:50;;;;;;;169.40;94.50;;;;;;;;;;5191914;27;319080;-80
2023/12/31 05:22:16;;;;;;;218.23;123.13;;;;;;;;;;5201830;27;318386;-80
2023/12/31 05:24:43;;;;;;;240.53;142.93;;;;;;;;;;5193464;27;320592;-80
2023/12/31 05:27:24;;;;;;;222.20;125.93;;;;;;;;;;5198444;27;319099;-80
2023/12/31 05:29:52;;;;;;;211.03;122.30;;;;;;;;;;5155819;27;318888;-79
2023/12/31 05:32:22;;;;;;;210.30;124.83;;;;;;;;;;5198183;27;318607;-79
2023/12/31 05:34:48;;;;;;;230.00;127.57;;;;;;;;;;5176465;27;320095;-80
2023/12/31 05:37:18;;;;;;;211.87;123.30;;;;;;;;;;5197244;27;318425;-79
2023/12/31 05:39:48;;;;;;;200.07;119.17;;;;;;;;;;5156521;27;323368;-77
2023/12/31 05:42:17;;;;;;;211.00;121.00;;;;;;;;;;5178344;27;319739;-79
2023/12/31 05:44:43;;;;;;;187.23;109.17;;;;;;;;;;5153740;27;319401;-80
2023/12/31 05:47:12;;;;;;;180.90;101.37;;;;;;;;;;5204114;27;318603;-80
2023/12/31 05:49:38;;;;;;;151.10;88.87;;;;;;;;;;5193982;27;318329;-80
2023/12/31 05:52:07;;;;;;;122.70;73.83;;;;;;;;;;5198582;27;317290;-80
2023/12/31 05:54:37;;;;;;;138.43;77.00;;;;;;;;;;5195671;27;319000;-79
2023/12/31 05:57:04;;;;;;;122.17;74.87;;;;;;;;;;5208552;27;317947;-80
2023/12/31 05:59:31;;;;;;;121.30;70.50;;;;;;;;;;5209244;27;317987;-80
2023/12/31 06:01:57;;;;;;;121.43;71.40;;;;;;;;;;5185944;27;418588;-79
2023/12/31 06:04:31;;;;;;;124.90;73.07;;;;;;;;;;5194405;27;323208;-79
2023/12/31 06:07:00;;;;;;;118.10;68.47;;;;;;;;;;5160271;27;417242;-79
2023/12/31 06:09:30;;;;;;;129.03;74.07;;;;;;;;;;5198239;27;317715;-79
2023/12/31 06:11:59;;;;;;;134.57;77.50;;;;;;;;;;5155787;27;317641;-78
2023/12/31 06:14:29;;;;;;;210.90;110.57;;;;;;;;;;5180540;27;317478;-79
2023/12/31 06:16:56;;;;;;;239.30;114.97;;;;;;;;;;5173786;27;320166;-79
2023/12/31 06:19:25;;;;;;;196.47;102.23;;;;;;;;;;5197049;27;318779;-79
2023/12/31 06:21:53;;;;;;;213.93;109.93;;;;;;;;;;5156511;27;318973;-79
2023/12/31 06:24:23;;;;;;;210.23;117.43;;;;;;;;;;5200226;27;320513;-79
2023/12/31 06:26:49;;;;;;;194.13;113.80;;;;;;;;;;5195349;27;319898;-80
2023/12/31 06:29:16;;;;;;;184.90;106.53;;;;;;;;;;5206896;27;318449;-79
2023/12/31 06:31:43;;;;;;;191.03;108.83;;;;;;;;;;5182628;27;320691;-80
2023/12/31 06:34:10;;;;;;;203.53;111.00;;;;;;;;;;5186936;27;320535;-80
2023/12/31 06:36:36;;;;;;;196.57;113.70;;;;;;;;;;5188606;27;320461;-80
2023/12/31 06:39:07;;;;;;;200.17;111.30;;;;;;;;;;5175723;27;357579;-80
2023/12/31 06:41:34;;;;;;;169.93;100.33;;;;;;;;;;5184333;27;320330;-80
2023/12/31 06:44:01;;;;;;;161.77;94.13;;;;;;;;;;5191761;27;324068;-80
2023/12/31 06:46:28;;;;;;;159.77;94.57;;;;;;;;;;5177750;27;319441;-80
2023/12/31 06:48:55;;;;;;;138.07;86.47;;;;;;;;;;5191110;27;319241;-80
2023/12/31 06:51:22;;;;;;;182.73;106.93;;;;;;;;;;5177439;27;322081;-79
2023/12/31 06:53:49;;;;;;;147.87;85.17;;;;;;;;;;5186349;27;319798;-80
2023/12/31 06:56:18;;;;;;;164.13;97.17;;;;;;;;;;5178547;27;319454;-80
2023/12/31 06:58:45;;;;;;;149.87;90.83;;;;;;;;;;5189731;27;319512;-80
2023/12/31 07:01:13;;;;;;;182.80;100.73;;;;;;;;;;5175239;27;353704;-80
2023/12/31 07:03:39;;;;;;;167.73;97.63;;;;;;;;;;5185835;27;320379;-80
2023/12/31 07:06:07;;;;;;;149.83;88.20;;;;;;;;;;5176478;27;319219;-80
2023/12/31 07:08:34;;;;;;;157.97;88.20;;;;;;;;;;5190730;27;319198;-80
2023/12/31 07:11:01;;;;;;;154.00;88.63;;;;;;;;;;5190709;27;319463;-80
2023/12/31 07:13:30;;;;;;;156.53;84.67;;;;;;;;;;5168648;27;419882;-80
2023/12/31 07:15:58;;;;;;;163.93;89.40;;;;;;;;;;5190446;27;319381;-80
2023/12/31 07:18:25;;;;;;;159.27;96.00;;;;;;;;;;5179832;27;319969;-79
2023/12/31 07:20:54;;;;;;;183.70;105.47;;;;;;;;;;5189408;27;320137;-80
2023/12/31 07:23:21;;;;;;;185.50;111.27;;;;;;;;;;5171533;27;320123;-79
2023/12/31 07:25:47;;;;;;;177.97;106.37;;;;;;;;;;5191365;27;319732;-79
2023/12/31 07:28:14;;;;;;;187.87;112.83;;;;;;;;;;5177964;27;320310;-79
2023/12/31 07:30:43;;;;;;;191.63;115.50;;;;;;;;;;5196356;27;359183;-79
2023/12/31 07:33:10;;;;;;;190.73;113.60;;;;;;;;;;5191891;27;355343;-79
2023/12/31 07:35:37;;;;;;;189.20;108.80;;;;;;;;;;5197578;27;320120;-79
2023/12/31 07:38:05;;;;;;;184.20;111.07;;;;;;;;;;5192157;27;319891;-79
2023/12/31 07:40:32;;;;;;;184.77;109.23;;;;;;;;;;5202091;27;319419;-79
2023/12/31 07:42:59;;;;;;;186.73;112.07;;;;;;;;;;5202548;27;320163;-79
2023/12/31 07:45:26;;;;;;;148.90;91.27;;;;;;;;;;5174497;27;320568;-79
2023/12/31 07:47:54;;;;;;;122.80;76.03;;;;;;;;;;5187630;27;319042;-79
2023/12/31 07:50:21;;;;;;;151.83;86.47;;;;;;;;;;5176401;27;319321;-81
2023/12/31 07:52:48;;;;;;;191.27;114.13;;;;;;;;;;5192265;27;318934;-79
2023/12/31 07:55:15;;;;;;;185.17;113.17;;;;;;;;;;5170990;27;320450;-79
2023/12/31 07:57:41;;;;;;;171.87;103.87;;;;;;;;;;5188381;27;320405;-80
2023/12/31 08:00:10;;;;;;;152.17;91.47;;;;;;;;;;5175383;27;320278;-79
2023/12/31 08:02:36;;;;;;;116.87;72.67;;;;;;;;;;5186591;27;319194;-80
2023/12/31 08:05:05;;;;;;;142.27;84.90;;;;;;;;;;5173687;27;319507;-79
2023/12/31 08:07:32;;;;;;;112.17;67.10;;;;;;;;;;5173300;27;319366;-79
2023/12/31 08:09:59;;;;;;;94.00;59.30;;;;;;;;;;5184089;27;318474;-80
2023/12/31 08:12:26;;;;;;;91.67;56.17;;;;;;;;;;5175071;27;318176;-79
2023/12/31 08:14:52;;;;;;;84.57;54.27;;;;;;;;;;5184284;27;318183;-81
2023/12/31 08:17:19;;;;;;;91.87;57.23;;;;;;;;;;5164888;27;339268;-79
2023/12/31 08:19:46;;;;;;;92.83;56.67;;;;;;;;;;5184476;27;317620;-79
2023/12/31 08:22:14;;;;;;;83.60;52.07;;;;;;;;;;5173063;27;318355;-81
2023/12/31 08:24:41;;;;;;;76.53;48.27;;;;;;;;;;5185966;27;318157;-80
2023/12/31 08:27:07;;;;;;;72.93;48.63;;;;;;;;;;5173051;27;317713;-79
2023/12/31 08:29:34;;;;;;;402.60;238.97;;;;;;;;;;5176577;27;317974;-79
2023/12/31 08:32:01;;;;;;;486.87;315.13;;;;;;;;;;5186409;27;320254;-79
2023/12/31 08:34:29;;;;;;;488.23;320.50;;;;;;;;;;5172544;27;360653;-79
2023/12/31 08:36:56;;;;;;;472.27;299.37;;;;;;;;;;5186163;27;320447;-80
2023/12/31 08:39:24;;;;;;;411.87;259.60;;;;;;;;;;5168700;27;320426;-81
2023/12/31 08:41:51;;;;;;;347.43;219.00;;;;;;;;;;5186327;27;320475;-79
2023/12/31 08:44:18;;;;;;;347.23;217.63;;;;;;;;;;5174007;27;320373;-79
2023/12/31 08:46:45;;;;;;;319.70;197.33;;;;;;;;;;5187178;27;319710;-79
2023/12/31 08:49:11;;;;;;;262.47;170.40;;;;;;;;;;5174540;27;320197;-80
2023/12/31 08:51:38;;;;;;;247.83;153.37;;;;;;;;;;5179456;27;320416;-81
2023/12/31 08:54:05;;;;;;;234.97;146.50;;;;;;;;;;5175215;27;320086;-80
2023/12/31 08:56:33;;;;;;;218.57;139.20;;;;;;;;;;5187314;27;319717;-79
2023/12/31 08:59:00;;;;;;;213.57;136.17;;;;;;;;;;5188247;27;320323;-80
2023/12/31 09:01:26;;;;;;;201.00;130.30;;;;;;;;;;5168618;27;320216;-80
2023/12/31 09:03:53;;;;;;;204.03;131.00;;;;;;;;;;5186534;27;329731;-80
2023/12/31 09:06:20;;;;;;;200.27;127.40;;;;;;;;;;5175290;27;320287;-80
2023/12/31 09:08:46;;;;;;;192.20;119.63;;;;;;;;;;5190323;27;320298;-80
2023/12/31 09:11:13;;;;;;;192.97;121.83;;;;;;;;;;5176105;27;320161;-80
2023/12/31 09:13:41;;;;;;;178.03;113.90;;;;;;;;;;5181194;27;319481;-81
2023/12/31 09:16:08;;;;;;;173.00;106.63;;;;;;;;;;5179179;27;320265;-80
2023/12/31 09:18:35;;;;;;;145.67;92.33;;;;;;;;;;5191678;27;319506;-80
2023/12/31 09:21:01;;;;;;;152.47;94.00;;;;;;;;;;5190726;27;318763;-80
2023/12/31 09:23:28;;;;;;;145.47;91.90;;;;;;;;;;5163211;27;418473;-80
2023/12/31 09:25:55;;;;;;;147.83;92.47;;;;;;;;;;5191686;27;319050;-80
2023/12/31 09:28:22;;;;;;;140.90;91.73;;;;;;;;;;5180528;27;319518;-80
2023/12/31 09:30:50;;;;;;;148.63;99.27;;;;;;;;;;5190869;27;318687;-82
2023/12/31 09:33:17;;;;;;;160.93;101.10;;;;;;;;;;5169709;27;319357;-79
2023/12/31 09:35:44;;;;;;;147.93;98.43;;;;;;;;;;5189515;27;319451;-81
2023/12/31 09:38:10;;;;;;;150.47;97.27;;;;;;;;;;5177714;27;319630;-81
2023/12/31 09:40:37;;;;;;;160.03;101.60;;;;;;;;;;5189483;27;319814;-80
2023/12/31 09:43:04;;;;;;;164.13;103.27;;;;;;;;;;5176602;27;320105;-81
2023/12/31 09:45:33;;;;;;;157.43;103.20;;;;;;;;;;5177859;27;320128;-81
2023/12/31 09:48:02;;;;;;;155.90;101.03;;;;;;;;;;5190174;27;320296;-79
2023/12/31 09:50:30;;;;;;;161.37;102.57;;;;;;;;;;5172284;27;419362;-79
2023/12/31 09:52:57;;;;;;;160.50;102.77;;;;;;;;;;5188656;27;320101;-79
2023/12/31 09:55:27;;;;;;;166.07;105.70;;;;;;;;;;5168775;27;334524;-79
2023/12/31 09:57:54;;;;;;;168.00;108.23;;;;;;;;;;5188780;27;320310;-79
2023/12/31 10:00:21;;;;;;;159.60;106.37;;;;;;;;;;5179104;27;320431;-82
2023/12/31 10:02:51;;;;;;;179.47;109.63;;;;;;;;;;5191652;27;320205;-79
2023/12/31 10:05:22;;;;;;;172.27;109.67;;;;;;;;;;5170715;27;320320;-82
2023/12/31 10:07:49;;;;;;;171.60;113.13;;;;;;;;;;5190328;27;320302;-81
2023/12/31 10:10:17;;;;;;;177.23;111.07;;;;;;;;;;5179630;27;320274;-80
2023/12/31 10:12:43;;;;;;;175.77;109.87;;;;;;;;;;5191481;27;320366;-82
2023/12/31 10:15:10;;;;;;;161.63;102.20;;;;;;;;;;5182747;27;355893;-80
2023/12/31 10:17:37;;;;;;;153.10;95.03;;;;;;;;;;5197744;27;319067;-80
2023/12/31 10:20:05;;;;;;;159.30;101.53;;;;;;;;;;5190293;27;349664;-80
2023/12/31 10:22:36;;;;;;;178.67;103.97;;;;;;;;;;5202983;27;320127;-80
2023/12/31 10:25:16;;;;;;;154.27;96.10;;;;;;;;;;5196759;27;320281;-79
2023/12/31 10:27:46;;;;;;;141.13;86.80;;;;;;;;;;5202770;27;317982;-80
2023/12/31 10:30:13;;;;;;;132.80;79.20;;;;;;;;;;5189630;27;319352;-79
2023/12/31 10:32:41;;;;;;;148.73;90.60;;;;;;;;;;5201657;27;339982;-80
2023/12/31 10:35:09;;;;;;;152.17;93.20;;;;;;;;;;5187539;27;319721;-80
2023/12/31 10:37:37;;;;;;;136.90;83.73;;;;;;;;;;5180763;27;319264;-80
2023/12/31 10:40:18;;;;;;;128.27;80.40;;;;;;;;;;5179646;27;319279;-79
2023/12/31 10:42:48;;;;;;;134.23;84.20;;;;;;;;;;5206811;27;318458;-80
2023/12/31 10:45:17;;;;;;;136.73;84.23;;;;;;;;;;5193597;27;326855;-80
2023/12/31 10:47:45;;;;;;;126.50;81.93;;;;;;;;;;5203129;27;319061;-80
2023/12/31 10:50:17;;;;;;;127.40;80.57;;;;;;;;;;5181401;27;319342;-80
2023/12/31 10:52:46;;;;;;;111.83;70.97;;;;;;;;;;5187538;27;319347;-80
2023/12/31 10:55:14;;;;;;;89.93;58.23;;;;;;;;;;5174643;27;318665;-82
2023/12/31 10:57:43;;;;;;;82.50;54.97;;;;;;;;;;5183552;27;318072;-81
2023/12/31 11:00:12;;;;;;;95.33;60.03;;;;;;;;;;5179494;27;318096;-81
2023/12/31 11:02:38;;;;;;;105.87;70.63;;;;;;;;;;5188718;27;318048;-82
2023/12/31 11:05:08;;;;;;;115.13;72.07;;;;;;;;;;5175703;27;383152;-80
2023/12/31 11:07:35;;;;;;;97.03;61.73;;;;;;;;;;5181605;27;320090;-80
2023/12/31 11:10:04;;;;;;;123.60;78.50;;;;;;;;;;5186773;27;319115;-81
2023/12/31 11:12:31;;;;;;;146.40;84.97;;;;;;;;;;5173616;27;418720;-82
2023/12/31 11:15:06;;;;;;;156.57;94.77;;;;;;;;;;5188140;27;319695;-80
2023/12/31 11:17:51;;;;;;;147.73;93.97;;;;;;;;;;5165317;27;419509;-82
2023/12/31 11:20:35;;;;;;;167.67;103.03;;;;;;;;;;5176069;27;319605;-81
2023/12/31 11:23:10;;;;;;;100.43;62.57;;;;;;;;;;5188941;27;321422;-81
2023/12/31 11:25:39;;;;;;;85.80;61.93;;;;;;;;;;5163228;27;421346;-80
2023/12/31 11:28:07;;;;;;;97.00;67.47;;;;;;;;;;5174839;27;318563;-80
2023/12/31 11:30:48;;;;;;;87.00;58.13;;;;;;;;;;5187229;27;319266;-80
2023/12/31 11:33:17;;;;;;;85.07;59.23;;;;;;;;;;5169851;27;349292;-80
2023/12/31 11:35:45;;;;;;;75.30;54.43;;;;;;;;;;5186078;27;319142;-80
2023/12/31 11:38:11;;;;;;;76.47;48.77;;;;;;;;;;5175191;27;319414;-81
2023/12/31 11:40:41;;;;;;;82.20;53.23;;;;;;;;;;5186889;27;319060;-80
2023/12/31 11:43:13;;;;;;;79.97;52.30;;;;;;;;;;5176367;27;319245;-82
2023/12/31 11:45:42;;;;;;;85.47;54.97;;;;;;;;;;5185015;27;319419;-79
2023/12/31 11:48:18;;;;;;;91.50;60.33;;;;;;;;;;5171278;27;319258;-79
2023/12/31 11:50:48;;;;;;;90.67;59.57;;;;;;;;;;5195914;27;318974;-80
2023/12/31 11:53:15;;;;;;;81.90;56.17;;;;;;;;;;5164989;27;319088;-81
2023/12/31 11:55:43;;;;;;;88.37;54.17;;;;;;;;;;5186808;27;319066;-80
2023/12/31 11:58:11;;;;;;;79.47;54.37;;;;;;;;;;5173929;27;349838;-81
2023/12/31 12:00:38;;;;;;;78.23;54.43;;;;;;;;;;5186518;27;318249;-80
2023/12/31 12:03:07;;;;;;;87.90;51.93;;;;;;;;;;5175157;27;317592;-80
2023/12/31 12:05:34;;;;;;;75.40;50.37;;;;;;;;;;5177868;27;318174;-80
2023/12/31 12:08:05;;;;;;;80.67;50.50;;;;;;;;;;5186690;27;318069;-82
2023/12/31 12:10:32;;;;;;;82.63;50.83;;;;;;;;;;5169528;27;418559;-80
2023/12/31 12:13:02;;;;;;;79.00;50.13;;;;;;;;;;5185226;27;318221;-80
2023/12/31 12:15:34;;;;;;;80.80;51.17;;;;;;;;;;5163721;27;417131;-80
2023/12/31 12:18:00;;;;;;;73.03;48.53;;;;;;;;;;5183064;27;317358;-80
2023/12/31 12:20:27;;;;;;;67.23;46.63;;;;;;;;;;5176466;27;318315;-80
2023/12/31 12:22:55;;;;;;;74.27;47.23;;;;;;;;;;5186229;27;317361;-82
2023/12/31 12:25:22;;;;;;;72.53;44.97;;;;;;;;;;5163367;27;318244;-80
2023/12/31 12:27:49;;;;;;;64.20;44.10;;;;;;;;;;5184423;27;318250;-80
2023/12/31 12:30:19;;;;;;;60.50;38.93;;;;;;;;;;5175735;27;318249;-81
2023/12/31 12:32:47;;;;;;;38.17;26.47;;;;;;;;;;5185977;27;318120;-81
2023/12/31 12:35:14;;;;;;;49.30;27.03;;;;;;;;;;5168908;27;353551;-81
2023/12/31 12:37:41;;;;;;;42.33;26.40;;;;;;;;;;5187439;27;317995;-79
2023/12/31 12:40:15;;;;;;;45.80;29.37;;;;;;;;;;5176775;27;318269;-79
2023/12/31 12:42:45;;;;;;;48.77;33.20;;;;;;;;;;5190115;27;318045;-81
2023/12/31 12:45:12;;;;;;;55.30;36.87;;;;;;;;;;5180520;27;318431;-81
2023/12/31 12:47:42;;;;;;;62.47;38.30;;;;;;;;;;5188341;27;318186;-82
2023/12/31 12:50:09;;;;;;;65.10;39.30;;;;;;;;;;5173988;27;323068;-80
2023/12/31 12:52:36;;;;;;;65.70;41.83;;;;;;;;;;5187452;27;318006;-80
2023/12/31 12:55:03;;;;;;;64.90;42.30;;;;;;;;;;5175102;27;318323;-81
2023/12/31 12:57:30;;;;;;;70.27;44.40;;;;;;;;;;5174474;27;317464;-81
2023/12/31 12:59:57;;;;;;;72.03;46.67;;;;;;;;;;5187337;27;318000;-81
2023/12/31 13:02:24;;;;;;;66.30;41.97;;;;;;;;;;5173991;27;318769;-81
2023/12/31 13:04:53;;;;;;;65.70;44.63;;;;;;;;;;5185685;27;317569;-80
2023/12/31 13:07:20;;;;;;;100.10;65.73;;;;;;;;;;5167095;27;318437;-80
2023/12/31 13:09:47;;;;;;;137.67;74.00;;;;;;;;;;5181320;27;319532;-80
2023/12/31 13:12:13;;;;;;;134.70;79.30;;;;;;;;;;5173703;27;319111;-80
2023/12/31 13:14:40;;;;;;;99.23;58.23;;;;;;;;;;5187285;27;319319;-80
2023/12/31 13:17:07;;;;;;;85.10;51.10;;;;;;;;;;5173521;27;318110;-80
2023/12/31 13:19:33;;;;;;;88.53;55.03;;;;;;;;;;5179862;27;317475;-80
2023/12/31 13:22:02;;;;;;;61.17;39.80;;;;;;;;;;5184458;27;317633;-80
2023/12/31 13:24:29;;;;;;;63.20;41.83;;;;;;;;;;5166995;27;419131;-80
2023/12/31 13:26:55;;;;;;;72.00;44.23;;;;;;;;;;5185411;27;336199;-80
2023/12/31 13:29:22;;;;;;;70.67;39.37;;;;;;;;;;5167907;27;318179;-80
2023/12/31 13:31:49;;;;;;;69.43;42.40;;;;;;;;;;5186817;27;318475;-80
2023/12/31 13:34:16;;;;;;;68.33;44.23;;;;;;;;;;5176019;27;317475;-82
2023/12/31 13:36:42;;;;;;;92.93;52.87;;;;;;;;;;5189171;27;318065;-80
2023/12/31 13:39:11;;;;;;;93.90;56.67;;;;;;;;;;5179080;27;318308;-80
2023/12/31 13:41:38;;;;;;;124.13;68.60;;;;;;;;;;5166751;27;318174;-80
2023/12/31 13:44:05;;;;;;;113.40;63.37;;;;;;;;;;5178744;27;319309;-81
2023/12/31 13:46:32;;;;;;;148.50;86.90;;;;;;;;;;5189919;27;319170;-79
2023/12/31 13:48:58;;;;;;;151.73;86.97;;;;;;;;;;5188693;27;319026;-80
2023/12/31 13:51:25;;;;;;;150.67;86.60;;;;;;;;;;5171150;27;318540;-80
2023/12/31 13:53:52;;;;;;;136.77;78.23;;;;;;;;;;5190564;27;318531;-82
2023/12/31 13:56:20;;;;;;;124.57;73.30;;;;;;;;;;5177308;27;319296;-81
2023/12/31 13:58:47;;;;;;;146.37;75.77;;;;;;;;;;5186109;27;319201;-81